Poland, New York
Current Conditions -  °F | °C
As of 4:53 PM on Friday 19 Dec 2014 (Local Time) from KRME Reporting Station
Overcast Overcast  
Wind Chill: -9°   Ceiling: 1900
Heat Index: -4°   Visibility: 10mi
Dew Point: -7°   Wind: 9mph
Humidity: 81%   Direction: 310°NW
Pressure: 30.17"   Gusts: NA
Location:  43.23°N, 75.06°W
Report Text: KRME 192153Z 31008KT 10SM OVC019 M04/M07 A3017 RMK AO2 SLP224 T10391067
Loading
Personal Weather Stations






























Interactive Weather Map New forecast layout! Learn more

10-Day Weather Forecast

Advertisements
Track Severe Weather on mobile